createdAt,value
2018-08-13T00:00:29.069Z,1.20
2018-08-13T00:02:56.197Z,1.30
2018-08-13T00:05:23.340Z,1.40
2018-08-13T00:07:50.537Z,1.00
2018-08-13T00:10:17.914Z,1.20
2018-08-13T00:12:45.115Z,1.07
2018-08-13T00:15:12.384Z,1.10
2018-08-13T00:17:39.634Z,1.30
2018-08-13T00:20:06.707Z,1.27
2018-08-13T00:22:33.829Z,1.23
2018-08-13T00:25:00.986Z,1.30
2018-08-13T00:27:28.150Z,1.30
2018-08-13T00:29:55.350Z,1.30
2018-08-13T00:32:22.499Z,1.20
2018-08-13T00:34:49.674Z,1.53
2018-08-13T00:37:17.173Z,1.10
2018-08-13T00:39:44.837Z,1.50
2018-08-13T00:42:12.091Z,1.10
2018-08-13T00:44:39.233Z,1.60
2018-08-13T00:47:06.425Z,1.10
2018-08-13T00:49:33.570Z,1.70
2018-08-13T00:52:01.086Z,0.97
2018-08-13T00:54:28.264Z,1.17
2018-08-13T00:56:55.401Z,1.10
2018-08-13T00:59:22.534Z,0.93
2018-08-13T01:01:49.699Z,1.10
2018-08-13T01:04:16.891Z,1.17
2018-08-13T01:06:44.165Z,1.07
2018-08-13T01:09:11.396Z,1.30
2018-08-13T01:11:38.528Z,1.33
2018-08-13T01:14:06.045Z,1.37
2018-08-13T01:16:33.213Z,1.40
2018-08-13T01:19:00.387Z,1.17
2018-08-13T01:21:27.762Z,1.30
2018-08-13T01:23:54.990Z,1.10
2018-08-13T01:26:22.199Z,1.27
2018-08-13T01:28:49.465Z,1.00
2018-08-13T01:31:16.745Z,1.50
2018-08-13T01:33:44.338Z,1.17
2018-08-13T01:36:12.618Z,1.10
2018-08-13T01:38:39.815Z,1.10
2018-08-13T01:41:06.973Z,0.97
2018-08-13T01:43:34.118Z,1.00
2018-08-13T01:46:01.282Z,1.20
2018-08-13T01:48:28.468Z,1.30
2018-08-13T01:50:55.892Z,1.20
2018-08-13T01:53:23.021Z,1.13
2018-08-13T01:55:50.213Z,1.20
2018-08-13T01:58:17.394Z,1.20
2018-08-13T02:00:44.627Z,1.00
2018-08-13T02:03:11.950Z,1.20
2018-08-13T02:05:39.114Z,1.00
2018-08-13T02:08:06.480Z,1.27
2018-08-13T02:10:33.609Z,1.20
2018-08-13T02:13:00.748Z,1.13
2018-08-13T02:15:27.920Z,1.10
2018-08-13T02:17:55.066Z,1.10
2018-08-13T02:20:22.189Z,1.30
2018-08-13T02:22:49.505Z,1.10
2018-08-13T02:25:16.805Z,1.20
2018-08-13T02:27:44.006Z,1.10
2018-08-13T02:30:11.420Z,1.20
2018-08-13T02:32:38.866Z,1.20
2018-08-13T02:35:06.740Z,0.90
2018-08-13T02:37:33.892Z,1.17
2018-08-13T02:40:01.507Z,1.03
2018-08-13T02:42:28.639Z,0.93
2018-08-13T02:44:55.872Z,0.93
2018-08-13T02:47:23.371Z,1.33
2018-08-13T02:49:50.588Z,1.03
2018-08-13T02:52:17.843Z,1.50
2018-08-13T02:54:45.118Z,1.20
2018-08-13T02:57:12.273Z,1.20
2018-08-13T02:59:39.449Z,1.10
2018-08-13T03:02:06.668Z,1.40
2018-08-13T03:04:34.165Z,1.50
2018-08-13T03:07:01.280Z,1.30
2018-08-13T03:09:28.450Z,1.40
2018-08-13T03:11:55.596Z,1.47
2018-08-13T03:14:22.753Z,1.40
2018-08-13T03:16:49.897Z,1.20
2018-08-13T03:19:17.121Z,1.53
2018-08-13T03:21:44.321Z,1.10
2018-08-13T03:24:11.625Z,1.40
2018-08-13T03:26:38.753Z,1.37
2018-08-13T03:29:05.946Z,1.37
2018-08-13T03:31:33.119Z,1.10
2018-08-13T03:34:00.296Z,1.53
2018-08-13T03:36:27.449Z,1.37
2018-08-13T03:38:54.617Z,1.40
2018-08-13T03:41:21.763Z,1.70
2018-08-13T03:43:48.923Z,1.47
2018-08-13T03:46:16.072Z,1.50
2018-08-13T03:48:43.236Z,1.67
2018-08-13T03:51:10.498Z,1.07
2018-08-13T03:53:37.698Z,1.40
2018-08-13T03:56:05.293Z,1.23
2018-08-13T03:58:32.455Z,1.67
2018-08-13T04:00:59.572Z,1.20
2018-08-13T04:03:26.704Z,1.20
2018-08-13T04:05:53.880Z,1.60
2018-08-13T04:08:21.046Z,1.70
2018-08-13T04:10:48.300Z,1.50
2018-08-13T04:13:15.509Z,1.60
2018-08-13T04:15:42.764Z,1.70
2018-08-13T04:18:09.932Z,1.57
2018-08-13T04:20:37.082Z,1.40
2018-08-13T04:23:04.251Z,1.40
2018-08-13T04:25:31.389Z,1.60
2018-08-13T04:27:58.520Z,1.30
2018-08-13T04:30:25.670Z,1.13
2018-08-13T04:32:52.844Z,1.83
2018-08-13T04:35:20.046Z,1.50
2018-08-13T04:37:47.274Z,1.50
2018-08-13T04:40:18.018Z,1.30
2018-08-13T04:42:46.110Z,1.60
2018-08-13T04:45:13.414Z,1.80
2018-08-13T04:47:51.849Z,1.80
2018-08-13T04:50:19.160Z,1.77
2018-08-13T04:52:46.611Z,1.60
2018-08-13T04:55:13.802Z,1.70
2018-08-13T04:57:41.009Z,1.63
2018-08-13T05:00:08.823Z,1.57
2018-08-13T05:02:36.007Z,1.40
2018-08-13T05:05:04.459Z,1.40
2018-08-13T05:07:31.599Z,1.83
2018-08-13T05:09:58.749Z,1.37
2018-08-13T05:12:25.878Z,1.50
2018-08-13T05:14:53.025Z,1.60
2018-08-13T05:17:20.199Z,1.50
2018-08-13T05:19:47.423Z,1.60
2018-08-13T05:22:14.630Z,1.57
2018-08-13T05:24:42.076Z,1.93
2018-08-13T05:27:09.224Z,1.90
2018-08-13T05:29:36.369Z,1.60
2018-08-13T05:32:04.235Z,1.73
2018-08-13T05:34:31.363Z,1.77
2018-08-13T05:36:58.493Z,1.50
2018-08-13T05:39:25.643Z,1.67
2018-08-13T05:41:52.812Z,1.97
2018-08-13T05:44:19.974Z,1.77
2018-08-13T05:46:47.104Z,2.47
2018-08-13T05:49:14.319Z,2.40
2018-08-13T05:51:41.644Z,2.40
2018-08-13T05:54:08.771Z,2.33
2018-08-13T05:56:35.918Z,2.30
2018-08-13T05:59:03.065Z,2.90
2018-08-13T06:01:30.264Z,2.20
2018-08-13T06:03:57.485Z,1.90
2018-08-13T06:06:24.652Z,2.30
2018-08-13T06:08:51.786Z,2.50
2018-08-13T06:11:19.018Z,3.17
2018-08-13T06:13:46.122Z,4.33
2018-08-13T06:16:13.382Z,3.30
2018-08-13T06:18:40.627Z,4.70
2018-08-13T06:21:07.822Z,3.53
2018-08-13T06:23:34.941Z,3.63
2018-08-13T06:26:02.285Z,3.60
2018-08-13T06:28:29.957Z,4.13
2018-08-13T06:30:57.140Z,3.70
2018-08-13T06:33:24.309Z,3.53
2018-08-13T06:35:51.457Z,4.10
2018-08-13T06:38:18.635Z,3.27
2018-08-13T06:40:45.981Z,3.30
2018-08-13T06:43:13.269Z,4.00
2018-08-13T06:45:40.588Z,3.90
2018-08-13T06:48:07.753Z,4.20
2018-08-13T06:50:34.903Z,4.80
2018-08-13T06:53:02.075Z,4.00
2018-08-13T06:55:29.221Z,4.00
2018-08-13T06:57:56.431Z,3.80
2018-08-13T07:00:23.578Z,4.17
2018-08-13T07:02:50.732Z,3.50
2018-08-13T07:05:17.921Z,3.90
2018-08-13T07:07:45.122Z,4.00
2018-08-13T07:10:13.595Z,4.23
2018-08-13T07:12:42.497Z,4.63
2018-08-13T07:15:09.922Z,3.53
2018-08-13T07:17:37.351Z,4.33
2018-08-13T07:20:07.144Z,4.23
2018-08-13T07:22:34.310Z,3.90
2018-08-13T07:25:01.487Z,4.07
2018-08-13T07:27:28.754Z,4.00
2018-08-13T07:29:55.915Z,4.13
2018-08-13T07:32:23.094Z,4.23
2018-08-13T07:34:50.361Z,3.50
2018-08-13T07:37:17.705Z,3.50
2018-08-13T07:39:44.960Z,3.27
2018-08-13T07:42:12.234Z,3.77
2018-08-13T07:44:39.402Z,2.77
2018-08-13T07:47:06.607Z,3.10
2018-08-13T07:49:34.114Z,4.37
2018-08-13T07:52:01.283Z,4.17
2018-08-13T07:54:28.413Z,4.13
2018-08-13T07:56:55.601Z,3.73
2018-08-13T07:59:22.782Z,4.03
2018-08-13T08:01:49.938Z,4.50
2018-08-13T08:04:17.191Z,4.03
2018-08-13T08:06:44.491Z,4.20
2018-08-13T08:09:12.517Z,5.17
2018-08-13T08:11:40.362Z,5.97
2018-08-13T08:14:08.004Z,4.90
2018-08-13T08:16:35.213Z,5.50
2018-08-13T08:19:02.385Z,5.00
2018-08-13T08:21:29.795Z,5.47
2018-08-13T08:23:56.931Z,5.70
2018-08-13T08:26:24.236Z,6.63
2018-08-13T08:28:52.061Z,6.97
2018-08-13T08:31:19.326Z,6.57
2018-08-13T08:33:46.547Z,6.70
2018-08-13T08:36:13.724Z,6.33
2018-08-13T08:38:41.342Z,6.90
2018-08-13T08:41:08.478Z,6.13
2018-08-13T08:43:35.624Z,6.17
2018-08-13T08:46:02.847Z,5.67
2018-08-13T08:48:30.030Z,5.10
2018-08-13T08:50:57.233Z,5.63
2018-08-13T08:53:24.441Z,4.73
2018-08-13T08:55:51.569Z,5.17
2018-08-13T08:58:18.805Z,5.63
2018-08-13T09:00:46.082Z,5.53
2018-08-13T09:03:13.250Z,6.27
2018-08-13T09:05:40.438Z,6.17
2018-08-13T09:08:07.613Z,4.93
2018-08-13T09:10:34.845Z,4.60
2018-08-13T09:13:01.996Z,5.13
2018-08-13T09:15:29.139Z,5.70
2018-08-13T09:18:07.995Z,5.90
2018-08-13T09:20:46.792Z,6.03
2018-08-13T09:23:25.478Z,6.00
2018-08-13T09:26:04.238Z,6.70
2018-08-13T09:28:42.861Z,5.23
2018-08-13T09:31:18.439Z,5.80
2018-08-13T09:33:57.409Z,5.90
2018-08-13T09:36:24.555Z,6.33
2018-08-13T09:38:51.737Z,6.30
2018-08-13T09:41:18.913Z,6.00
2018-08-13T09:43:46.091Z,5.80
2018-08-13T09:46:13.279Z,6.17
2018-08-13T09:48:40.458Z,5.83
2018-08-13T09:51:07.614Z,5.73
2018-08-13T09:53:34.786Z,6.13
2018-08-13T09:56:01.988Z,5.57
2018-08-13T09:58:29.121Z,6.50
2018-08-13T10:01:01.949Z,5.43
2018-08-13T10:03:29.359Z,6.10
2018-08-13T10:05:56.582Z,5.77
2018-08-13T10:08:23.769Z,6.03
2018-08-13T10:10:50.982Z,5.60
2018-08-13T10:13:18.145Z,7.07
2018-08-13T10:15:45.434Z,7.10
2018-08-13T10:18:12.679Z,7.50
2018-08-13T10:20:39.837Z,6.60
2018-08-13T10:23:06.974Z,7.80
2018-08-13T10:25:34.126Z,8.23
2018-08-13T10:28:01.305Z,7.57
2018-08-13T10:30:28.469Z,6.33
2018-08-13T10:32:55.616Z,7.93
2018-08-13T10:35:22.763Z,7.80
2018-08-13T10:37:49.955Z,8.07
2018-08-13T10:40:18.284Z,7.53
2018-08-13T10:42:45.994Z,7.50
2018-08-13T10:45:13.453Z,8.10
2018-08-13T10:47:40.774Z,7.47
2018-08-13T10:50:09.721Z,7.57
2018-08-13T10:52:37.056Z,7.10
2018-08-13T10:55:04.437Z,6.80
2018-08-13T10:57:31.618Z,7.80
2018-08-13T10:59:58.810Z,7.47
2018-08-13T11:02:25.965Z,7.73
2018-08-13T11:04:53.217Z,8.07
2018-08-13T11:07:20.437Z,8.70
2018-08-13T11:09:47.721Z,7.67
2018-08-13T11:12:14.940Z,7.47
2018-08-13T11:14:42.206Z,8.67
2018-08-13T11:17:09.418Z,8.60
2018-08-13T11:19:36.600Z,9.27
2018-08-13T11:22:03.874Z,9.37
2018-08-13T11:24:31.043Z,7.73
2018-08-13T11:26:58.189Z,7.53
2018-08-13T11:29:25.352Z,8.73
2018-08-13T11:31:52.523Z,9.90
2018-08-13T11:34:19.623Z,8.87
2018-08-13T11:36:46.994Z,9.63
2018-08-13T11:39:14.180Z,9.70
2018-08-13T11:41:41.361Z,8.97
2018-08-13T11:44:08.834Z,9.83
2018-08-13T11:46:35.991Z,8.87
2018-08-13T11:49:03.622Z,9.13
2018-08-13T11:51:30.854Z,8.97
2018-08-13T11:53:58.035Z,9.33
2018-08-13T11:56:25.299Z,8.03
2018-08-13T11:58:52.554Z,8.73
2018-08-13T12:01:19.761Z,8.03
2018-08-13T12:03:47.003Z,8.67
2018-08-13T12:06:14.294Z,7.23
2018-08-13T12:08:41.477Z,6.20
2018-08-13T12:11:08.626Z,6.33
2018-08-13T12:13:35.858Z,5.60
2018-08-13T12:16:03.071Z,6.47
2018-08-13T12:18:30.633Z,6.13
2018-08-13T12:20:57.845Z,5.57
2018-08-13T12:23:25.157Z,5.70
2018-08-13T12:25:52.286Z,6.90
2018-08-13T12:28:19.421Z,6.37
2018-08-13T12:30:46.697Z,10.07
2018-08-13T12:33:14.153Z,7.20
2018-08-13T12:35:41.332Z,5.43
2018-08-13T12:38:08.498Z,5.67
2018-08-13T12:40:35.695Z,4.67
2018-08-13T12:43:02.948Z,4.10
2018-08-13T12:45:30.150Z,4.30
2018-08-13T12:47:57.372Z,3.73
2018-08-13T12:50:24.533Z,3.93
2018-08-13T12:52:52.187Z,3.57
2018-08-13T12:55:19.394Z,3.87
2018-08-13T12:57:46.614Z,3.40
2018-08-13T13:00:16.127Z,3.03
2018-08-13T13:02:43.387Z,2.90
2018-08-13T13:05:12.146Z,3.80
2018-08-13T13:07:39.343Z,3.13
2018-08-13T13:10:08.997Z,2.73
2018-08-13T13:12:36.256Z,3.40
2018-08-13T13:15:04.826Z,2.63
2018-08-13T13:17:31.976Z,2.20
2018-08-13T13:19:59.176Z,2.50
2018-08-13T13:22:26.310Z,3.30
2018-08-13T13:24:53.480Z,2.50
2018-08-13T13:27:20.610Z,2.43
2018-08-13T13:29:47.781Z,2.70
2018-08-13T13:32:15.016Z,2.80
2018-08-13T13:34:42.442Z,2.70
2018-08-13T13:37:09.570Z,3.00
2018-08-13T13:39:36.738Z,2.40
2018-08-13T13:42:03.957Z,2.80
2018-08-13T13:44:31.133Z,3.07
2018-08-13T13:46:58.248Z,2.67
2018-08-13T13:49:25.410Z,2.90
2018-08-13T13:51:52.563Z,2.30
2018-08-13T13:54:19.718Z,2.67
2018-08-13T13:56:46.915Z,2.65
2018-08-13T13:59:14.107Z,2.70
2018-08-13T14:01:41.309Z,2.20
2018-08-13T14:04:08.493Z,2.17
2018-08-13T14:06:35.672Z,2.15
2018-08-13T14:09:04.909Z,2.43
2018-08-13T14:11:32.083Z,2.30
2018-08-13T14:13:59.219Z,2.05
2018-08-13T14:16:26.414Z,2.10
2018-08-13T14:18:53.610Z,2.55
2018-08-13T14:21:20.757Z,2.35
2018-08-13T14:23:47.954Z,2.30
2018-08-13T14:26:15.134Z,1.82
2018-08-13T14:28:42.414Z,2.22
2018-08-13T14:31:09.554Z,2.25
2018-08-13T14:33:36.682Z,2.42
2018-08-13T14:36:03.906Z,2.08
2018-08-13T14:38:31.082Z,2.12
2018-08-13T14:40:58.224Z,2.02
2018-08-13T14:43:25.362Z,1.95
2018-08-13T14:45:52.506Z,1.70
2018-08-13T14:48:19.669Z,1.90
2018-08-13T14:50:46.925Z,1.80
2018-08-13T14:53:14.141Z,1.87
2018-08-13T14:55:41.410Z,1.60
2018-08-13T14:58:09.381Z,1.60
2018-08-13T15:00:37.473Z,2.08
2018-08-13T15:03:09.563Z,1.90
2018-08-13T15:05:37.075Z,2.27
2018-08-13T15:08:04.367Z,1.90
2018-08-13T15:10:31.542Z,1.80
2018-08-13T15:12:58.777Z,1.98
2018-08-13T15:15:25.976Z,1.77
2018-08-13T15:17:53.162Z,1.80
2018-08-13T15:20:22.141Z,1.87
2018-08-13T15:22:49.369Z,2.08
2018-08-13T15:25:16.648Z,1.72
2018-08-13T15:27:44.033Z,2.72
2018-08-13T15:30:13.366Z,2.22
2018-08-13T15:32:40.766Z,2.10
2018-08-13T15:35:08.415Z,1.92
2018-08-13T15:37:35.619Z,1.92
2018-08-13T15:40:03.774Z,1.77
2018-08-13T15:42:30.910Z,2.05
2018-08-13T15:44:58.090Z,1.92
2018-08-13T15:47:25.220Z,1.82
2018-08-13T15:49:52.352Z,1.80
2018-08-13T15:52:19.549Z,1.92
2018-08-13T15:54:47.230Z,1.95
2018-08-13T15:57:14.482Z,1.55
2018-08-13T15:59:41.752Z,1.80
2018-08-13T16:02:09.028Z,1.85
2018-08-13T16:04:36.246Z,2.02
2018-08-13T16:07:06.281Z,1.70
2018-08-13T16:09:33.457Z,1.82
2018-08-13T16:12:00.634Z,1.40
2018-08-13T16:14:27.767Z,1.50
2018-08-13T16:16:54.910Z,1.40
2018-08-13T16:19:22.035Z,1.80
2018-08-13T16:21:49.232Z,1.70
2018-08-13T16:24:16.656Z,1.77
2018-08-13T16:26:43.913Z,1.85
2018-08-13T16:29:11.115Z,1.85
2018-08-13T16:31:38.300Z,1.80
2018-08-13T16:34:05.945Z,1.50
2018-08-13T16:36:33.136Z,1.70
2018-08-13T16:39:00.313Z,1.70
2018-08-13T16:41:27.445Z,1.57
2018-08-13T16:43:54.600Z,1.50
2018-08-13T16:46:21.793Z,1.50
2018-08-13T16:48:48.946Z,1.20
2018-08-13T16:51:16.124Z,1.40
2018-08-13T16:53:43.318Z,1.20
2018-08-13T16:56:10.565Z,1.10
2018-08-13T16:58:37.649Z,1.07
2018-08-13T17:01:05.131Z,1.27
2018-08-13T17:03:32.290Z,1.70
2018-08-13T17:05:59.421Z,1.10
2018-08-13T17:08:26.598Z,1.27
2018-08-13T17:10:53.795Z,1.10
2018-08-13T17:13:20.952Z,1.30
2018-08-13T17:15:48.165Z,1.30
2018-08-13T17:18:15.368Z,1.20
2018-08-13T17:20:42.620Z,1.07
2018-08-13T17:23:09.850Z,1.00
2018-08-13T17:25:37.002Z,1.00
2018-08-13T17:28:04.403Z,1.23
2018-08-13T17:30:31.569Z,1.13
2018-08-13T17:32:59.766Z,0.83
2018-08-13T17:35:30.659Z,1.30
2018-08-13T17:37:58.580Z,1.17
2018-08-13T17:40:26.274Z,1.40
2018-08-13T17:42:54.208Z,1.23
2018-08-13T17:45:21.627Z,0.90
2018-08-13T17:47:48.890Z,0.97
2018-08-13T17:50:17.666Z,0.90
2018-08-13T17:52:44.976Z,1.40
2018-08-13T17:55:12.951Z,1.50
2018-08-13T17:57:40.828Z,1.00
2018-08-13T18:00:10.862Z,1.13
2018-08-13T18:02:38.175Z,1.07
2018-08-13T18:05:07.612Z,1.10
2018-08-13T18:07:34.848Z,0.93
2018-08-13T18:10:02.116Z,1.00
2018-08-13T18:12:29.286Z,0.90
2018-08-13T18:14:56.558Z,0.80
2018-08-13T18:17:23.723Z,0.80
2018-08-13T18:19:50.886Z,0.70
2018-08-13T18:22:18.074Z,1.10
2018-08-13T18:24:45.343Z,0.80
2018-08-13T18:27:12.514Z,0.70
2018-08-13T18:29:39.740Z,1.10
2018-08-13T18:32:07.276Z,1.00
2018-08-13T18:34:34.415Z,0.67
2018-08-13T18:37:01.767Z,1.10
2018-08-13T18:39:28.910Z,1.30
2018-08-13T18:41:56.059Z,1.27
2018-08-13T18:44:23.254Z,1.47
2018-08-13T18:46:50.555Z,1.60
2018-08-13T18:49:17.794Z,1.47
2018-08-13T18:51:45.071Z,1.73
2018-08-13T18:54:12.433Z,1.30
2018-08-13T18:56:39.610Z,1.80
2018-08-13T18:59:06.817Z,1.77
2018-08-13T19:01:34.033Z,1.80
2018-08-13T19:04:01.227Z,1.40
2018-08-13T19:06:29.280Z,1.63
2018-08-13T19:08:57.321Z,1.50
2018-08-13T19:11:24.727Z,1.30
2018-08-13T19:13:51.923Z,1.70
2018-08-13T19:16:19.163Z,1.47
2018-08-13T19:18:46.439Z,1.30
2018-08-13T19:21:13.686Z,1.50
2018-08-13T19:23:41.035Z,1.47
2018-08-13T19:26:08.205Z,1.43
2018-08-13T19:28:35.341Z,1.77
2018-08-13T19:31:02.500Z,1.30
2018-08-13T19:33:29.763Z,1.90
2018-08-13T19:35:56.899Z,1.70
2018-08-13T19:38:24.089Z,1.43
2018-08-13T19:40:51.338Z,1.53
2018-08-13T19:43:18.597Z,1.67
2018-08-13T19:45:45.861Z,1.80
2018-08-13T19:48:13.234Z,1.97
2018-08-13T19:50:40.471Z,2.10
2018-08-13T19:53:07.660Z,2.00
2018-08-13T19:55:34.850Z,2.20
2018-08-13T19:58:02.030Z,1.70
2018-08-13T20:00:29.391Z,2.20
2018-08-13T20:02:56.644Z,2.30
2018-08-13T20:05:25.049Z,2.00
2018-08-13T20:07:53.059Z,2.03
2018-08-13T20:10:20.282Z,2.17
2018-08-13T20:12:47.670Z,2.23
2018-08-13T20:15:15.043Z,1.80
2018-08-13T20:17:42.533Z,1.93
2018-08-13T20:20:15.010Z,2.30
2018-08-13T20:22:43.184Z,1.93
2018-08-13T20:25:11.577Z,1.83
2018-08-13T20:27:45.495Z,2.00
2018-08-13T20:30:14.828Z,1.90
2018-08-13T20:32:42.994Z,1.90
2018-08-13T20:35:10.239Z,1.70
2018-08-13T20:37:37.508Z,2.20
2018-08-13T20:40:06.694Z,2.00
2018-08-13T20:42:33.863Z,1.83
2018-08-13T20:45:01.218Z,2.00
2018-08-13T20:47:28.392Z,2.33
2018-08-13T20:49:55.558Z,2.13
2018-08-13T20:52:22.829Z,2.13
2018-08-13T20:54:50.111Z,2.37
2018-08-13T20:57:17.453Z,3.13
2018-08-13T20:59:44.694Z,2.40
2018-08-13T21:02:12.076Z,1.90
2018-08-13T21:04:39.294Z,1.83
2018-08-13T21:07:06.510Z,2.23
2018-08-13T21:09:33.699Z,2.53
2018-08-13T21:12:00.868Z,1.77
2018-08-13T21:14:28.018Z,2.00
2018-08-13T21:16:55.253Z,1.90
2018-08-13T21:19:22.472Z,1.80
2018-08-13T21:21:49.794Z,1.80
2018-08-13T21:24:17.029Z,1.93
2018-08-13T21:26:44.305Z,2.27
2018-08-13T21:29:11.788Z,1.40
2018-08-13T21:31:39.070Z,2.20
2018-08-13T21:34:06.331Z,1.83
2018-08-13T21:36:33.529Z,1.97
2018-08-13T21:39:00.694Z,1.50
2018-08-13T21:41:27.873Z,1.60
2018-08-13T21:43:55.079Z,1.80
2018-08-13T21:46:22.276Z,1.60
2018-08-13T21:48:49.539Z,1.73
2018-08-13T21:51:16.794Z,1.93
2018-08-13T21:53:44.023Z,1.40
2018-08-13T21:56:11.290Z,1.57
2018-08-13T21:58:38.461Z,1.80
2018-08-13T22:01:11.380Z,1.50
2018-08-13T22:03:38.583Z,1.70
2018-08-13T22:06:05.813Z,1.60
2018-08-13T22:08:32.977Z,1.73
2018-08-13T22:11:00.154Z,1.80
2018-08-13T22:13:27.366Z,1.70
2018-08-13T22:15:54.548Z,1.40
2018-08-13T22:20:55.692Z,2.10
2018-08-13T22:23:22.890Z,1.97
2018-08-13T22:25:50.075Z,1.67
2018-08-13T22:28:17.785Z,1.53
2018-08-13T22:30:45.653Z,1.63
2018-08-13T22:33:12.970Z,1.80
2018-08-13T22:35:40.175Z,1.57
2018-08-13T22:38:07.936Z,1.40
2018-08-13T22:40:35.395Z,1.57
2018-08-13T22:43:02.654Z,2.10
2018-08-13T22:45:29.771Z,1.70
2018-08-13T22:47:57.026Z,1.70
2018-08-13T22:50:24.242Z,1.73
2018-08-13T22:52:51.460Z,1.20
2018-08-13T22:55:19.008Z,1.40
2018-08-13T22:57:46.516Z,1.87
2018-08-13T23:00:17.064Z,1.43
2018-08-13T23:02:45.166Z,1.70
2018-08-13T23:05:15.103Z,1.80
2018-08-13T23:07:42.376Z,1.97
2018-08-13T23:10:11.722Z,1.60
2018-08-13T23:12:38.891Z,1.63
2018-08-13T23:15:08.939Z,1.57
2018-08-13T23:17:36.070Z,1.90
2018-08-13T23:20:05.147Z,1.80
2018-08-13T23:22:46.049Z,1.87
2018-08-13T23:25:13.424Z,1.70
2018-08-13T23:27:41.070Z,1.80
2018-08-13T23:30:08.233Z,1.90
2018-08-13T23:32:35.432Z,1.63
2018-08-13T23:35:02.662Z,1.40
2018-08-13T23:37:29.856Z,1.50
2018-08-13T23:39:57.117Z,1.53
2018-08-13T23:42:24.329Z,1.70
2018-08-13T23:44:51.485Z,1.50
2018-08-13T23:47:18.760Z,1.70
2018-08-13T23:49:46.009Z,1.77
2018-08-13T23:52:13.255Z,1.70
2018-08-13T23:54:41.402Z,2.07
2018-08-13T23:57:08.619Z,2.00
2018-08-13T23:59:35.778Z,1.40
